TVS3AQ EDDC-EPKT
Flight info
| Callsign | TVS3AQ |
|---|---|
| Flight time | 0h 43m |
| Altitude | 27000 |
| Route | KOBUS8E KOBUS DCT LASIS T714 MAPIK |
| Aircraft | B738/M-SDE2E3FGHIRWXY/LB1 |
Departure
| Time | 2026-04-27 16:17 |
|---|---|
| Airport | Dresden Airport (EDDC) |
Arrival
| Time | 2026-04-27 17:00 |
|---|---|
| Airport | Katowice Wojciech Korfanty International Airport (EPKT) |
| Time | Latitude | Longitude | Altitude | Speed | Heading |
|---|---|---|---|---|---|
| 2026-04-27 15:36 | 51.12631 | 13.76547 | 753 ft | 0 kts | 221° |
| 2026-04-27 16:09 | 51.12632 | 13.76549 | 753 ft | 0 kts | 221° |
| 2026-04-27 16:09 | 51.12638 | 13.76558 | 753 ft | 2 kts | 221° |
| 2026-04-27 16:09 | 51.12649 | 13.76573 | 752 ft | 2 kts | 221° |
| 2026-04-27 16:10 | 51.12672 | 13.76605 | 752 ft | 2 kts | 221° |
| 2026-04-27 16:10 | 51.12694 | 13.76637 | 751 ft | 2 kts | 239° |
| 2026-04-27 16:11 | 51.12699 | 13.76660 | 751 ft | 2 kts | 268° |
| 2026-04-27 16:11 | 51.12692 | 13.76695 | 751 ft | 1 kts | 313° |
| 2026-04-27 16:12 | 51.12688 | 13.76701 | 751 ft | 0 kts | 312° |
| 2026-04-27 16:13 | 51.12702 | 13.76676 | 751 ft | 7 kts | 311° |
| 2026-04-27 16:14 | 51.12811 | 13.76472 | 746 ft | 9 kts | 299° |
| 2026-04-27 16:14 | 51.12731 | 13.76308 | 750 ft | 18 kts | 221° |
| 2026-04-27 16:15 | 51.12445 | 13.75915 | 753 ft | 17 kts | 221° |
| 2026-04-27 16:15 | 51.12376 | 13.75747 | 750 ft | 12 kts | 285° |
| 2026-04-27 16:16 | 51.12508 | 13.75528 | 746 ft | 17 kts | 31° |
| 2026-04-27 16:16 | 51.13356 | 13.76691 | 729 ft | 156 kts | 39° |
| 2026-04-27 16:17 | 51.15099 | 13.79055 | 2123 ft | 166 kts | 37° |
| 2026-04-27 16:17 | 51.16922 | 13.81569 | 3264 ft | 196 kts | 41° |
| 2026-04-27 16:18 | 51.18926 | 13.84469 | 3759 ft | 190 kts | 41° |
| 2026-04-27 16:18 | 51.21060 | 13.86993 | 4249 ft | 193 kts | 30° |
| 2026-04-27 16:19 | 51.22224 | 13.88120 | 4310 ft | 205 kts | 31° |
| 2026-04-27 16:19 | 51.23459 | 13.89386 | 4337 ft | 218 kts | 32° |
| 2026-04-27 16:20 | 51.27545 | 13.93774 | 6750 ft | 245 kts | 35° |
| 2026-04-27 16:20 | 51.28891 | 13.95437 | 7750 ft | 248 kts | 37° |
| 2026-04-27 16:20 | 51.31467 | 13.99019 | 8819 ft | 253 kts | 39° |
| 2026-04-27 16:21 | 51.32813 | 14.00849 | 9254 ft | 253 kts | 37° |
| 2026-04-27 16:21 | 51.37228 | 14.06674 | 9394 ft | 300 kts | 37° |
| 2026-04-27 16:22 | 51.38865 | 14.08855 | 9391 ft | 315 kts | 37° |
| 2026-04-27 16:22 | 51.42366 | 14.13532 | 9387 ft | 334 kts | 36° |
| 2026-04-27 16:22 | 51.44130 | 14.15793 | 9382 ft | 318 kts | 36° |
| 2026-04-27 16:23 | 51.45887 | 14.18038 | 9471 ft | 336 kts | 36° |
| 2026-04-27 16:23 | 51.49385 | 14.22915 | 11455 ft | 342 kts | 45° |
| 2026-04-27 16:23 | 51.50658 | 14.26197 | 12253 ft | 355 kts | 67° |
| 2026-04-27 16:24 | 51.50989 | 14.30082 | 13038 ft | 366 kts | 90° |
| 2026-04-27 16:24 | 51.49869 | 14.38167 | 14551 ft | 380 kts | 105° |
| 2026-04-27 16:25 | 51.48357 | 14.46354 | 16020 ft | 389 kts | 104° |
| 2026-04-27 16:25 | 51.46968 | 14.54791 | 17361 ft | 399 kts | 102° |
| 2026-04-27 16:26 | 51.45645 | 14.63458 | 18657 ft | 407 kts | 102° |
| 2026-04-27 16:26 | 51.44308 | 14.72346 | 19873 ft | 416 kts | 102° |
| 2026-04-27 16:27 | 51.42936 | 14.81445 | 21010 ft | 424 kts | 102° |
| 2026-04-27 16:27 | 51.40796 | 14.95260 | 22633 ft | 435 kts | 104° |
| 2026-04-27 16:28 | 51.38778 | 15.04438 | 23589 ft | 444 kts | 111° |
| 2026-04-27 16:28 | 51.36380 | 15.13566 | 24536 ft | 452 kts | 112° |
| 2026-04-27 16:29 | 51.32639 | 15.27528 | 25889 ft | 463 kts | 112° |
| 2026-04-27 16:30 | 51.30129 | 15.36972 | 26994 ft | 464 kts | 112° |
| 2026-04-27 16:30 | 51.27626 | 15.46449 | 27184 ft | 462 kts | 111° |
| 2026-04-27 16:31 | 51.23880 | 15.60641 | 27179 ft | 460 kts | 111° |
| 2026-04-27 16:31 | 51.21393 | 15.70049 | 27173 ft | 462 kts | 112° |
| 2026-04-27 16:32 | 51.18897 | 15.79446 | 27185 ft | 463 kts | 112° |
| 2026-04-27 16:32 | 51.17650 | 15.84117 | 27185 ft | 462 kts | 112° |
| 2026-04-27 16:33 | 51.15151 | 15.93549 | 27186 ft | 461 kts | 111° |
| 2026-04-27 16:33 | 51.13928 | 15.98274 | 27183 ft | 459 kts | 111° |
| 2026-04-27 16:33 | 51.12716 | 16.02994 | 27190 ft | 467 kts | 111° |
| 2026-04-27 16:33 | 51.11471 | 16.07852 | 27195 ft | 480 kts | 111° |
| 2026-04-27 16:34 | 51.10209 | 16.12772 | 27189 ft | 493 kts | 111° |
| 2026-04-27 16:34 | 51.08902 | 16.17843 | 27185 ft | 504 kts | 111° |
| 2026-04-27 16:34 | 51.07555 | 16.23037 | 27191 ft | 505 kts | 111° |
| 2026-04-27 16:34 | 51.06217 | 16.28172 | 27193 ft | 503 kts | 111° |
| 2026-04-27 16:35 | 51.04889 | 16.33247 | 27192 ft | 503 kts | 111° |
| 2026-04-27 16:35 | 51.03538 | 16.38395 | 27190 ft | 503 kts | 111° |
| 2026-04-27 16:35 | 51.00847 | 16.48618 | 27199 ft | 504 kts | 111° |
| 2026-04-27 16:36 | 50.99497 | 16.53726 | 27200 ft | 503 kts | 111° |
| 2026-04-27 16:36 | 50.98143 | 16.58841 | 27200 ft | 504 kts | 111° |
| 2026-04-27 16:36 | 50.96778 | 16.63987 | 27205 ft | 505 kts | 111° |
| 2026-04-27 16:36 | 50.95410 | 16.69130 | 27205 ft | 504 kts | 112° |
| 2026-04-27 16:37 | 50.94060 | 16.74196 | 27205 ft | 504 kts | 112° |
| 2026-04-27 16:37 | 50.92696 | 16.79305 | 27208 ft | 505 kts | 111° |
| 2026-04-27 16:37 | 50.91333 | 16.84398 | 27206 ft | 506 kts | 111° |
| 2026-04-27 16:37 | 50.89956 | 16.89536 | 27207 ft | 506 kts | 111° |
| 2026-04-27 16:38 | 50.88561 | 16.94726 | 27207 ft | 507 kts | 111° |
| 2026-04-27 16:38 | 50.87189 | 16.99818 | 27206 ft | 506 kts | 111° |
| 2026-04-27 16:38 | 50.85817 | 17.04899 | 27207 ft | 506 kts | 111° |
| 2026-04-27 16:38 | 50.84426 | 17.10036 | 27204 ft | 506 kts | 111° |
| 2026-04-27 16:39 | 50.83036 | 17.15153 | 27209 ft | 505 kts | 112° |
| 2026-04-27 16:39 | 50.81643 | 17.20245 | 27206 ft | 505 kts | 111° |
| 2026-04-27 16:39 | 50.80264 | 17.25247 | 27198 ft | 505 kts | 111° |
| 2026-04-27 16:39 | 50.78850 | 17.30357 | 27204 ft | 506 kts | 112° |
| 2026-04-27 16:40 | 50.77446 | 17.35419 | 27197 ft | 506 kts | 111° |
| 2026-04-27 16:40 | 50.76038 | 17.40483 | 27198 ft | 506 kts | 111° |
| 2026-04-27 16:40 | 50.74635 | 17.45557 | 27188 ft | 506 kts | 111° |
| 2026-04-27 16:40 | 50.73228 | 17.50695 | 27056 ft | 505 kts | 111° |
| 2026-04-27 16:41 | 50.71850 | 17.55677 | 26610 ft | 500 kts | 111° |
| 2026-04-27 16:41 | 50.70455 | 17.60721 | 25547 ft | 504 kts | 111° |
| 2026-04-27 16:41 | 50.69069 | 17.65735 | 24991 ft | 497 kts | 112° |
| 2026-04-27 16:41 | 50.67706 | 17.70656 | 24399 ft | 490 kts | 112° |
| 2026-04-27 16:42 | 50.66344 | 17.75540 | 24211 ft | 483 kts | 112° |
| 2026-04-27 16:42 | 50.65039 | 17.80363 | 24195 ft | 489 kts | 109° |
| 2026-04-27 16:42 | 50.64075 | 17.85544 | 24190 ft | 489 kts | 99° |
| 2026-04-27 16:42 | 50.63592 | 17.90774 | 24188 ft | 485 kts | 92° |
| 2026-04-27 16:43 | 50.63369 | 17.96037 | 24187 ft | 483 kts | 89° |
| 2026-04-27 16:43 | 50.63244 | 18.01273 | 24190 ft | 482 kts | 89° |
| 2026-04-27 16:43 | 50.63153 | 18.06559 | 24185 ft | 483 kts | 88° |
| 2026-04-27 16:43 | 50.63073 | 18.11814 | 24189 ft | 482 kts | 88° |
| 2026-04-27 16:44 | 50.62998 | 18.17082 | 24190 ft | 481 kts | 88° |
| 2026-04-27 16:44 | 50.62970 | 18.22291 | 24187 ft | 481 kts | 86° |
| 2026-04-27 16:44 | 50.63026 | 18.27557 | 24203 ft | 478 kts | 85° |
| 2026-04-27 16:44 | 50.63123 | 18.32672 | 24134 ft | 463 kts | 84° |
| 2026-04-27 16:45 | 50.63227 | 18.37680 | 23909 ft | 450 kts | 84° |
| 2026-04-27 16:45 | 50.63326 | 18.42504 | 23547 ft | 441 kts | 84° |
| 2026-04-27 16:45 | 50.63423 | 18.47319 | 22870 ft | 440 kts | 84° |
| 2026-04-27 16:45 | 50.63516 | 18.52048 | 22008 ft | 437 kts | 84° |
| 2026-04-27 16:46 | 50.63591 | 18.56822 | 21037 ft | 436 kts | 84° |
| 2026-04-27 16:46 | 50.63644 | 18.61531 | 20111 ft | 433 kts | 85° |
| 2026-04-27 16:46 | 50.63690 | 18.66200 | 19192 ft | 430 kts | 85° |
| 2026-04-27 16:46 | 50.63735 | 18.70837 | 18282 ft | 426 kts | 85° |
| 2026-04-27 16:47 | 50.63780 | 18.75467 | 17362 ft | 422 kts | 85° |
| 2026-04-27 16:47 | 50.63826 | 18.80062 | 16455 ft | 418 kts | 85° |
| 2026-04-27 16:47 | 50.63873 | 18.84567 | 15515 ft | 414 kts | 85° |
| 2026-04-27 16:47 | 50.63923 | 18.89053 | 14636 ft | 409 kts | 85° |
| 2026-04-27 16:48 | 50.63976 | 18.93505 | 13705 ft | 405 kts | 85° |
| 2026-04-27 16:48 | 50.64017 | 18.97863 | 12819 ft | 401 kts | 86° |
| 2026-04-27 16:48 | 50.64018 | 19.02202 | 11922 ft | 396 kts | 87° |
| 2026-04-27 16:49 | 50.63985 | 19.10712 | 10089 ft | 387 kts | 87° |
| 2026-04-27 16:49 | 50.63992 | 19.14891 | 9221 ft | 383 kts | 86° |
| 2026-04-27 16:49 | 50.64021 | 19.19059 | 8308 ft | 378 kts | 86° |
| 2026-04-27 16:49 | 50.64058 | 19.23132 | 7390 ft | 373 kts | 86° |
| 2026-04-27 16:50 | 50.64110 | 19.27165 | 6486 ft | 368 kts | 86° |
| 2026-04-27 16:50 | 50.64177 | 19.31098 | 5596 ft | 363 kts | 86° |
| 2026-04-27 16:50 | 50.64253 | 19.35029 | 4699 ft | 358 kts | 86° |
| 2026-04-27 16:50 | 50.64326 | 19.38867 | 4154 ft | 343 kts | 86° |
| 2026-04-27 16:51 | 50.64388 | 19.42491 | 4003 ft | 318 kts | 86° |
| 2026-04-27 16:51 | 50.64437 | 19.45806 | 3994 ft | 293 kts | 86° |
| 2026-04-27 16:51 | 50.64388 | 19.48821 | 3976 ft | 259 kts | 97° |
| 2026-04-27 16:51 | 50.63787 | 19.51397 | 3986 ft | 245 kts | 121° |
| 2026-04-27 16:52 | 50.62624 | 19.53290 | 3990 ft | 241 kts | 146° |
| 2026-04-27 16:52 | 50.61105 | 19.54245 | 3991 ft | 239 kts | 172° |
| 2026-04-27 16:52 | 50.59465 | 19.54126 | 3989 ft | 236 kts | 198° |
| 2026-04-27 16:52 | 50.58007 | 19.53012 | 3992 ft | 228 kts | 216° |
| 2026-04-27 16:53 | 50.56728 | 19.51566 | 3990 ft | 231 kts | 220° |
| 2026-04-27 16:53 | 50.55482 | 19.49987 | 3993 ft | 230 kts | 222° |
| 2026-04-27 16:53 | 50.54252 | 19.48409 | 3981 ft | 225 kts | 222° |
| 2026-04-27 16:53 | 50.53057 | 19.46875 | 3985 ft | 218 kts | 222° |
| 2026-04-27 16:54 | 50.51918 | 19.45352 | 3990 ft | 215 kts | 224° |
| 2026-04-27 16:54 | 50.50784 | 19.43795 | 3998 ft | 215 kts | 224° |
| 2026-04-27 16:54 | 50.49671 | 19.42266 | 3988 ft | 214 kts | 224° |
| 2026-04-27 16:54 | 50.48599 | 19.40656 | 3989 ft | 212 kts | 229° |
| 2026-04-27 16:55 | 50.47676 | 19.38922 | 3992 ft | 206 kts | 243° |
| 2026-04-27 16:55 | 50.47268 | 19.36809 | 3993 ft | 199 kts | 270° |
| 2026-04-27 16:55 | 50.47388 | 19.34665 | 3992 ft | 197 kts | 279° |
| 2026-04-27 16:55 | 50.47475 | 19.32547 | 3846 ft | 192 kts | 275° |
| 2026-04-27 16:56 | 50.47494 | 19.30552 | 3642 ft | 175 kts | 274° |
| 2026-04-27 16:56 | 50.47509 | 19.28707 | 3352 ft | 165 kts | 275° |
| 2026-04-27 16:56 | 50.47521 | 19.26989 | 3159 ft | 148 kts | 275° |
| 2026-04-27 16:56 | 50.47530 | 19.25447 | 2925 ft | 136 kts | 275° |
| 2026-04-27 16:57 | 50.47539 | 19.23983 | 2777 ft | 136 kts | 275° |
| 2026-04-27 16:57 | 50.47549 | 19.22506 | 2569 ft | 139 kts | 275° |
| 2026-04-27 16:57 | 50.47564 | 19.20992 | 2394 ft | 136 kts | 275° |
| 2026-04-27 16:57 | 50.47574 | 19.19509 | 2218 ft | 136 kts | 273° |
| 2026-04-27 16:58 | 50.47586 | 19.18058 | 2030 ft | 130 kts | 273° |
| 2026-04-27 16:58 | 50.47595 | 19.16617 | 1829 ft | 135 kts | 276° |
| 2026-04-27 16:58 | 50.47584 | 19.15129 | 1711 ft | 136 kts | 268° |
| 2026-04-27 16:58 | 50.47565 | 19.13669 | 1518 ft | 136 kts | 274° |
| 2026-04-27 16:59 | 50.47584 | 19.12188 | 1293 ft | 135 kts | 271° |
| 2026-04-27 16:59 | 50.47591 | 19.10739 | 1105 ft | 132 kts | 274° |
| 2026-04-27 16:59 | 50.47597 | 19.09323 | 990 ft | 124 kts | 271° |
| 2026-04-27 16:59 | 50.47601 | 19.08240 | 981 ft | 67 kts | 270° |
| 2026-04-27 17:00 | 50.47602 | 19.07436 | 977 ft | 15 kts | 270° |
| 2026-04-27 17:00 | 50.47560 | 19.07062 | 975 ft | 30 kts | 245° |
| 2026-04-27 17:00 | 50.47504 | 19.06893 | 974 ft | 0 kts | 241° |
| 2026-04-27 17:01 | 50.47487 | 19.06844 | 973 ft | 13 kts | 241° |
| 2026-04-27 17:01 | 50.47437 | 19.06708 | 974 ft | 14 kts | 240° |
| 2026-04-27 17:01 | 50.47322 | 19.06624 | 976 ft | 18 kts | 181° |
| 2026-04-27 17:02 | 50.47248 | 19.06671 | 976 ft | 14 kts | 120° |
| 2026-04-27 17:02 | 50.47237 | 19.06849 | 978 ft | 19 kts | 90° |
| 2026-04-27 17:02 | 50.47237 | 19.07095 | 980 ft | 25 kts | 93° |
| 2026-04-27 17:02 | 50.47236 | 19.07232 | 981 ft | 5 kts | 90° |
| 2026-04-27 17:03 | 50.47211 | 19.07277 | 982 ft | 7 kts | 172° |
| 2026-04-27 17:03 | 50.47173 | 19.07277 | 982 ft | 0 kts | 180° |